Terminal Aerodrome Forecast
Issued by NWS Sioux Falls, SD

Home | Current Version | Previous Version | Text Only | Print | Product List | Glossary Off
Versions: 1 2 3 4 5 6 7 8 9 10 11 12 13 14 15 16 17 18 19

000
FTUS43 KFSD 230500
TAFHON
TAF
KHON 230523Z 2306/2406 06005KT P6SM FEW120 BKN250
     FM231000 13006KT P6SM SCT120
     FM231600 15010KT P6SM SCT250
     FM240300 14009KT P6SM SCT060 BKN100=

USA.gov is the U.S. government's official web portal to all federal, state and local government web resources and services.